sensor_id;sensor_type;location;lat;lon;timestamp;P1;durP1;ratioP1;P2;durP2;ratioP2
19869;SDS011;10097;50.862;4.696;2024-02-21T00:01:44;29.67;;;10.93;;
19869;SDS011;10097;50.862;4.696;2024-02-21T00:04:09;26.67;;;11.97;;
19869;SDS011;10097;50.862;4.696;2024-02-21T00:06:35;31.97;;;12.17;;
19869;SDS011;10097;50.862;4.696;2024-02-21T00:09:01;30.00;;;11.40;;
19869;SDS011;10097;50.862;4.696;2024-02-21T00:11:26;33.47;;;11.17;;
19869;SDS011;10097;50.862;4.696;2024-02-21T00:13:53;32.70;;;12.17;;
19869;SDS011;10097;50.862;4.696;2024-02-21T00:16:19;30.50;;;11.80;;
19869;SDS011;10097;50.862;4.696;2024-02-21T00:18:44;33.53;;;11.83;;
19869;SDS011;10097;50.862;4.696;2024-02-21T00:21:10;33.10;;;10.83;;
19869;SDS011;10097;50.862;4.696;2024-02-21T00:23:42;29.33;;;11.10;;
19869;SDS011;10097;50.862;4.696;2024-02-21T00:26:11;24.93;;;11.03;;
19869;SDS011;10097;50.862;4.696;2024-02-21T00:28:38;25.97;;;10.93;;
19869;SDS011;10097;50.862;4.696;2024-02-21T00:31:04;28.80;;;11.90;;
19869;SDS011;10097;50.862;4.696;2024-02-21T00:33:30;30.70;;;11.03;;
19869;SDS011;10097;50.862;4.696;2024-02-21T00:35:55;33.33;;;11.77;;
19869;SDS011;10097;50.862;4.696;2024-02-21T00:38:21;32.07;;;11.03;;
19869;SDS011;10097;50.862;4.696;2024-02-21T00:40:47;30.80;;;10.87;;
19869;SDS011;10097;50.862;4.696;2024-02-21T00:43:12;34.03;;;10.97;;
19869;SDS011;10097;50.862;4.696;2024-02-21T00:45:38;27.10;;;10.60;;
19869;SDS011;10097;50.862;4.696;2024-02-21T00:48:04;27.93;;;10.70;;
19869;SDS011;10097;50.862;4.696;2024-02-21T00:50:30;29.57;;;11.43;;
19869;SDS011;10097;50.862;4.696;2024-02-21T00:52:56;26.93;;;10.67;;
19869;SDS011;10097;50.862;4.696;2024-02-21T00:55:21;26.60;;;10.47;;
19869;SDS011;10097;50.862;4.696;2024-02-21T00:57:47;28.33;;;10.53;;
19869;SDS011;10097;50.862;4.696;2024-02-21T01:00:14;34.03;;;10.53;;
19869;SDS011;10097;50.862;4.696;2024-02-21T01:02:40;31.33;;;9.90;;
19869;SDS011;10097;50.862;4.696;2024-02-21T01:05:05;27.77;;;10.80;;
19869;SDS011;10097;50.862;4.696;2024-02-21T01:07:31;24.57;;;9.73;;
19869;SDS011;10097;50.862;4.696;2024-02-21T01:09:57;26.47;;;9.13;;
19869;SDS011;10097;50.862;4.696;2024-02-21T01:12:22;25.53;;;9.37;;
19869;SDS011;10097;50.862;4.696;2024-02-21T01:14:48;28.33;;;10.70;;
19869;SDS011;10097;50.862;4.696;2024-02-21T01:17:14;25.77;;;10.07;;
19869;SDS011;10097;50.862;4.696;2024-02-21T01:19:40;28.83;;;10.00;;
19869;SDS011;10097;50.862;4.696;2024-02-21T01:22:06;28.27;;;9.77;;
19869;SDS011;10097;50.862;4.696;2024-02-21T01:24:32;22.20;;;9.17;;
19869;SDS011;10097;50.862;4.696;2024-02-21T01:26:57;26.47;;;9.13;;
19869;SDS011;10097;50.862;4.696;2024-02-21T01:29:23;23.80;;;9.63;;
19869;SDS011;10097;50.862;4.696;2024-02-21T01:31:49;30.33;;;10.10;;
19869;SDS011;10097;50.862;4.696;2024-02-21T01:34:14;22.23;;;8.70;;
19869;SDS011;10097;50.862;4.696;2024-02-21T01:36:40;21.17;;;8.33;;
19869;SDS011;10097;50.862;4.696;2024-02-21T01:39:07;28.60;;;9.27;;
19869;SDS011;10097;50.862;4.696;2024-02-21T01:41:32;23.00;;;8.30;;
19869;SDS011;10097;50.862;4.696;2024-02-21T01:43:58;29.23;;;8.80;;
19869;SDS011;10097;50.862;4.696;2024-02-21T01:46:24;28.07;;;9.50;;
19869;SDS011;10097;50.862;4.696;2024-02-21T01:48:56;25.13;;;9.50;;
19869;SDS011;10097;50.862;4.696;2024-02-21T01:51:23;22.03;;;8.47;;
19869;SDS011;10097;50.862;4.696;2024-02-21T01:53:49;23.77;;;7.73;;
19869;SDS011;10097;50.862;4.696;2024-02-21T01:56:17;27.77;;;8.47;;
19869;SDS011;10097;50.862;4.696;2024-02-21T01:58:43;25.30;;;8.00;;
19869;SDS011;10097;50.862;4.696;2024-02-21T02:01:09;25.67;;;7.47;;
19869;SDS011;10097;50.862;4.696;2024-02-21T02:03:35;18.10;;;7.97;;
19869;SDS011;10097;50.862;4.696;2024-02-21T02:06:02;20.40;;;7.57;;
19869;SDS011;10097;50.862;4.696;2024-02-21T02:08:29;25.70;;;8.37;;
19869;SDS011;10097;50.862;4.696;2024-02-21T02:10:56;21.90;;;7.67;;
19869;SDS011;10097;50.862;4.696;2024-02-21T02:13:22;20.13;;;7.50;;
19869;SDS011;10097;50.862;4.696;2024-02-21T02:15:48;24.43;;;7.30;;
19869;SDS011;10097;50.862;4.696;2024-02-21T02:18:15;19.10;;;8.07;;
19869;SDS011;10097;50.862;4.696;2024-02-21T02:20:42;22.03;;;7.03;;
19869;SDS011;10097;50.862;4.696;2024-02-21T02:23:25;23.93;;;8.40;;
19869;SDS011;10097;50.862;4.696;2024-02-21T02:25:56;22.83;;;8.23;;
19869;SDS011;10097;50.862;4.696;2024-02-21T02:28:22;25.30;;;8.37;;
19869;SDS011;10097;50.862;4.696;2024-02-21T02:30:48;27.30;;;8.23;;
19869;SDS011;10097;50.862;4.696;2024-02-21T02:33:14;25.37;;;7.63;;
19869;SDS011;10097;50.862;4.696;2024-02-21T02:35:40;20.10;;;7.63;;
19869;SDS011;10097;50.862;4.696;2024-02-21T02:38:05;21.00;;;8.03;;
19869;SDS011;10097;50.862;4.696;2024-02-21T02:40:32;25.53;;;7.77;;
19869;SDS011;10097;50.862;4.696;2024-02-21T02:42:59;23.83;;;8.30;;
19869;SDS011;10097;50.862;4.696;2024-02-21T02:45:25;21.60;;;8.10;;
19869;SDS011;10097;50.862;4.696;2024-02-21T02:47:53;21.97;;;7.73;;
19869;SDS011;10097;50.862;4.696;2024-02-21T02:50:20;26.40;;;8.20;;
19869;SDS011;10097;50.862;4.696;2024-02-21T02:52:46;27.07;;;8.03;;
19869;SDS011;10097;50.862;4.696;2024-02-21T02:55:11;18.60;;;7.53;;
19869;SDS011;10097;50.862;4.696;2024-02-21T02:57:37;21.33;;;7.90;;
19869;SDS011;10097;50.862;4.696;2024-02-21T03:00:03;22.60;;;8.43;;
19869;SDS011;10097;50.862;4.696;2024-02-21T03:02:29;23.77;;;8.17;;
19869;SDS011;10097;50.862;4.696;2024-02-21T03:04:56;21.97;;;7.90;;
19869;SDS011;10097;50.862;4.696;2024-02-21T03:07:24;22.07;;;8.10;;
19869;SDS011;10097;50.862;4.696;2024-02-21T03:09:50;26.47;;;7.60;;
19869;SDS011;10097;50.862;4.696;2024-02-21T03:12:16;19.17;;;7.60;;
19869;SDS011;10097;50.862;4.696;2024-02-21T03:14:52;23.27;;;7.37;;
19869;SDS011;10097;50.862;4.696;2024-02-21T03:17:18;22.37;;;7.97;;
19869;SDS011;10097;50.862;4.696;2024-02-21T03:19:43;18.57;;;7.50;;
19869;SDS011;10097;50.862;4.696;2024-02-21T03:22:09;25.00;;;8.23;;
19869;SDS011;10097;50.862;4.696;2024-02-21T03:24:35;27.27;;;8.03;;
19869;SDS011;10097;50.862;4.696;2024-02-21T03:27:00;20.67;;;7.13;;
19869;SDS011;10097;50.862;4.696;2024-02-21T03:29:26;20.30;;;7.07;;
19869;SDS011;10097;50.862;4.696;2024-02-21T03:31:51;20.00;;;7.70;;
19869;SDS011;10097;50.862;4.696;2024-02-21T03:34:17;25.30;;;7.77;;
19869;SDS011;10097;50.862;4.696;2024-02-21T03:36:43;23.53;;;8.13;;
19869;SDS011;10097;50.862;4.696;2024-02-21T03:39:08;20.43;;;7.20;;
19869;SDS011;10097;50.862;4.696;2024-02-21T03:41:34;22.47;;;7.93;;
19869;SDS011;10097;50.862;4.696;2024-02-21T03:44:00;19.73;;;7.63;;
19869;SDS011;10097;50.862;4.696;2024-02-21T03:46:26;22.33;;;7.60;;
19869;SDS011;10097;50.862;4.696;2024-02-21T03:48:52;18.63;;;7.03;;
19869;SDS011;10097;50.862;4.696;2024-02-21T03:51:18;22.50;;;7.80;;
19869;SDS011;10097;50.862;4.696;2024-02-21T03:53:44;18.47;;;7.03;;
19869;SDS011;10097;50.862;4.696;2024-02-21T03:56:09;22.03;;;7.37;;
19869;SDS011;10097;50.862;4.696;2024-02-21T03:58:35;20.87;;;7.37;;
19869;SDS011;10097;50.862;4.696;2024-02-21T04:01:01;22.10;;;7.67;;
19869;SDS011;10097;50.862;4.696;2024-02-21T04:03:27;21.83;;;8.47;;
19869;SDS011;10097;50.862;4.696;2024-02-21T04:05:53;21.53;;;7.63;;
19869;SDS011;10097;50.862;4.696;2024-02-21T04:08:19;24.10;;;8.10;;
19869;SDS011;10097;50.862;4.696;2024-02-21T04:10:44;36.57;;;8.67;;
19869;SDS011;10097;50.862;4.696;2024-02-21T04:13:10;25.37;;;7.60;;
19869;SDS011;10097;50.862;4.696;2024-02-21T04:15:36;23.43;;;7.83;;
19869;SDS011;10097;50.862;4.696;2024-02-21T04:18:02;25.33;;;8.03;;
19869;SDS011;10097;50.862;4.696;2024-02-21T04:20:30;21.37;;;8.37;;
19869;SDS011;10097;50.862;4.696;2024-02-21T04:22:56;16.63;;;7.43;;
19869;SDS011;10097;50.862;4.696;2024-02-21T04:25:22;22.70;;;7.60;;
19869;SDS011;10097;50.862;4.696;2024-02-21T04:27:47;23.17;;;7.77;;
19869;SDS011;10097;50.862;4.696;2024-02-21T04:30:13;23.67;;;8.03;;
19869;SDS011;10097;50.862;4.696;2024-02-21T04:32:39;28.00;;;8.70;;
19869;SDS011;10097;50.862;4.696;2024-02-21T04:35:05;23.17;;;7.43;;
19869;SDS011;10097;50.862;4.696;2024-02-21T04:37:32;17.73;;;7.33;;
19869;SDS011;10097;50.862;4.696;2024-02-21T04:39:57;26.07;;;7.60;;
19869;SDS011;10097;50.862;4.696;2024-02-21T04:42:23;22.67;;;7.97;;
19869;SDS011;10097;50.862;4.696;2024-02-21T04:44:49;19.37;;;7.77;;
19869;SDS011;10097;50.862;4.696;2024-02-21T04:47:14;23.47;;;8.03;;
19869;SDS011;10097;50.862;4.696;2024-02-21T04:49:40;20.97;;;8.17;;
19869;SDS011;10097;50.862;4.696;2024-02-21T04:52:06;20.47;;;8.07;;
19869;SDS011;10097;50.862;4.696;2024-02-21T04:54:32;20.97;;;7.00;;
19869;SDS011;10097;50.862;4.696;2024-02-21T04:56:57;29.33;;;8.53;;
19869;SDS011;10097;50.862;4.696;2024-02-21T04:59:23;27.13;;;8.00;;
19869;SDS011;10097;50.862;4.696;2024-02-21T05:01:48;18.37;;;7.57;;
19869;SDS011;10097;50.862;4.696;2024-02-21T05:04:15;19.67;;;7.47;;
19869;SDS011;10097;50.862;4.696;2024-02-21T05:06:41;21.67;;;7.97;;
19869;SDS011;10097;50.862;4.696;2024-02-21T05:09:07;20.10;;;7.83;;
19869;SDS011;10097;50.862;4.696;2024-02-21T05:11:34;20.87;;;7.27;;
19869;SDS011;10097;50.862;4.696;2024-02-21T05:14:00;19.67;;;7.80;;
19869;SDS011;10097;50.862;4.696;2024-02-21T05:16:26;16.87;;;7.47;;
19869;SDS011;10097;50.862;4.696;2024-02-21T05:18:51;19.00;;;7.20;;
19869;SDS011;10097;50.862;4.696;2024-02-21T05:21:17;20.20;;;7.47;;
19869;SDS011;10097;50.862;4.696;2024-02-21T05:23:43;23.60;;;7.90;;
19869;SDS011;10097;50.862;4.696;2024-02-21T05:26:09;24.57;;;7.47;;
19869;SDS011;10097;50.862;4.696;2024-02-21T05:28:34;20.90;;;7.40;;
19869;SDS011;10097;50.862;4.696;2024-02-21T05:31:00;19.00;;;6.73;;
19869;SDS011;10097;50.862;4.696;2024-02-21T05:33:26;20.30;;;6.23;;
19869;SDS011;10097;50.862;4.696;2024-02-21T05:35:52;20.73;;;7.37;;
19869;SDS011;10097;50.862;4.696;2024-02-21T05:38:18;16.30;;;6.37;;
19869;SDS011;10097;50.862;4.696;2024-02-21T05:40:46;17.10;;;6.77;;
19869;SDS011;10097;50.862;4.696;2024-02-21T05:43:12;20.07;;;5.90;;
19869;SDS011;10097;50.862;4.696;2024-02-21T05:45:38;20.57;;;6.20;;
19869;SDS011;10097;50.862;4.696;2024-02-21T05:48:04;15.27;;;6.17;;
19869;SDS011;10097;50.862;4.696;2024-02-21T05:50:30;17.20;;;6.00;;
19869;SDS011;10097;50.862;4.696;2024-02-21T05:52:55;16.60;;;5.80;;
19869;SDS011;10097;50.862;4.696;2024-02-21T05:55:21;15.10;;;5.33;;
19869;SDS011;10097;50.862;4.696;2024-02-21T05:57:47;16.77;;;5.70;;
19869;SDS011;10097;50.862;4.696;2024-02-21T06:00:13;13.43;;;5.37;;
19869;SDS011;10097;50.862;4.696;2024-02-21T06:02:40;15.17;;;5.43;;
19869;SDS011;10097;50.862;4.696;2024-02-21T06:05:06;9.70;;;4.53;;
19869;SDS011;10097;50.862;4.696;2024-02-21T06:07:34;11.20;;;4.70;;
19869;SDS011;10097;50.862;4.696;2024-02-21T06:10:03;12.33;;;5.00;;
19869;SDS011;10097;50.862;4.696;2024-02-21T06:12:30;9.97;;;4.60;;
19869;SDS011;10097;50.862;4.696;2024-02-21T06:14:55;22.57;;;5.60;;
19869;SDS011;10097;50.862;4.696;2024-02-21T06:17:21;12.13;;;4.57;;
19869;SDS011;10097;50.862;4.696;2024-02-21T06:19:46;14.67;;;4.87;;
19869;SDS011;10097;50.862;4.696;2024-02-21T06:22:12;13.80;;;4.93;;
19869;SDS011;10097;50.862;4.696;2024-02-21T06:24:38;12.27;;;4.67;;
19869;SDS011;10097;50.862;4.696;2024-02-21T06:27:04;14.93;;;5.27;;
19869;SDS011;10097;50.862;4.696;2024-02-21T06:29:33;11.80;;;4.43;;
19869;SDS011;10097;50.862;4.696;2024-02-21T06:31:59;11.87;;;4.37;;
19869;SDS011;10097;50.862;4.696;2024-02-21T06:34:24;13.73;;;4.60;;
19869;SDS011;10097;50.862;4.696;2024-02-21T06:36:50;13.40;;;4.27;;
19869;SDS011;10097;50.862;4.696;2024-02-21T06:39:16;10.83;;;4.60;;
19869;SDS011;10097;50.862;4.696;2024-02-21T06:41:42;11.20;;;4.03;;
19869;SDS011;10097;50.862;4.696;2024-02-21T06:44:08;12.90;;;4.10;;
19869;SDS011;10097;50.862;4.696;2024-02-21T06:46:34;14.77;;;4.77;;
19869;SDS011;10097;50.862;4.696;2024-02-21T06:49:00;12.43;;;4.57;;
19869;SDS011;10097;50.862;4.696;2024-02-21T06:51:27;13.40;;;4.90;;
19869;SDS011;10097;50.862;4.696;2024-02-21T06:53:53;15.63;;;5.10;;
19869;SDS011;10097;50.862;4.696;2024-02-21T06:56:19;12.47;;;5.47;;
19869;SDS011;10097;50.862;4.696;2024-02-21T06:58:45;12.97;;;5.37;;
19869;SDS011;10097;50.862;4.696;2024-02-21T07:01:11;10.23;;;5.70;;
19869;SDS011;10097;50.862;4.696;2024-02-21T07:03:37;13.97;;;5.30;;
19869;SDS011;10097;50.862;4.696;2024-02-21T07:06:02;17.20;;;5.73;;
19869;SDS011;10097;50.862;4.696;2024-02-21T07:08:28;15.47;;;5.67;;
19869;SDS011;10097;50.862;4.696;2024-02-21T07:10:54;14.80;;;5.83;;
19869;SDS011;10097;50.862;4.696;2024-02-21T07:13:20;12.87;;;5.83;;
19869;SDS011;10097;50.862;4.696;2024-02-21T07:15:47;15.83;;;5.97;;
19869;SDS011;10097;50.862;4.696;2024-02-21T07:18:13;13.87;;;6.53;;
19869;SDS011;10097;50.862;4.696;2024-02-21T07:20:39;15.73;;;6.80;;
19869;SDS011;10097;50.862;4.696;2024-02-21T07:23:06;18.73;;;6.83;;
19869;SDS011;10097;50.862;4.696;2024-02-21T07:25:33;17.20;;;7.37;;
19869;SDS011;10097;50.862;4.696;2024-02-21T07:27:58;16.53;;;7.10;;
19869;SDS011;10097;50.862;4.696;2024-02-21T07:30:24;15.13;;;6.43;;
19869;SDS011;10097;50.862;4.696;2024-02-21T07:32:50;18.27;;;7.30;;
19869;SDS011;10097;50.862;4.696;2024-02-21T07:35:17;16.13;;;6.87;;
19869;SDS011;10097;50.862;4.696;2024-02-21T07:37:42;14.40;;;7.07;;
19869;SDS011;10097;50.862;4.696;2024-02-21T07:40:15;14.80;;;7.13;;
19869;SDS011;10097;50.862;4.696;2024-02-21T07:42:42;17.57;;;7.30;;
19869;SDS011;10097;50.862;4.696;2024-02-21T07:45:08;14.13;;;6.60;;
19869;SDS011;10097;50.862;4.696;2024-02-21T07:47:35;14.90;;;7.10;;
19869;SDS011;10097;50.862;4.696;2024-02-21T07:50:02;16.97;;;7.77;;
19869;SDS011;10097;50.862;4.696;2024-02-21T07:52:28;19.50;;;7.37;;
19869;SDS011;10097;50.862;4.696;2024-02-21T07:54:54;19.60;;;7.77;;
19869;SDS011;10097;50.862;4.696;2024-02-21T07:57:19;16.13;;;6.80;;
19869;SDS011;10097;50.862;4.696;2024-02-21T07:59:45;14.20;;;7.37;;
19869;SDS011;10097;50.862;4.696;2024-02-21T08:02:13;18.03;;;7.37;;
19869;SDS011;10097;50.862;4.696;2024-02-21T08:04:39;20.63;;;7.43;;
19869;SDS011;10097;50.862;4.696;2024-02-21T08:07:04;17.57;;;7.30;;
19869;SDS011;10097;50.862;4.696;2024-02-21T08:09:30;16.33;;;7.80;;
19869;SDS011;10097;50.862;4.696;2024-02-21T08:11:58;17.27;;;7.30;;
19869;SDS011;10097;50.862;4.696;2024-02-21T08:14:23;14.80;;;6.63;;
19869;SDS011;10097;50.862;4.696;2024-02-21T08:16:52;16.70;;;7.73;;
19869;SDS011;10097;50.862;4.696;2024-02-21T08:19:20;17.27;;;6.83;;
19869;SDS011;10097;50.862;4.696;2024-02-21T08:21:45;15.53;;;6.57;;
19869;SDS011;10097;50.862;4.696;2024-02-21T08:24:14;17.53;;;6.80;;
19869;SDS011;10097;50.862;4.696;2024-02-21T08:26:40;15.47;;;5.97;;
19869;SDS011;10097;50.862;4.696;2024-02-21T08:29:06;16.20;;;6.13;;
19869;SDS011;10097;50.862;4.696;2024-02-21T08:31:32;15.73;;;5.90;;
19869;SDS011;10097;50.862;4.696;2024-02-21T08:33:59;15.63;;;5.90;;
19869;SDS011;10097;50.862;4.696;2024-02-21T08:36:32;14.73;;;5.70;;
19869;SDS011;10097;50.862;4.696;2024-02-21T08:38:58;17.57;;;5.53;;
19869;SDS011;10097;50.862;4.696;2024-02-21T08:41:24;14.93;;;5.87;;
19869;SDS011;10097;50.862;4.696;2024-02-21T08:43:51;15.03;;;5.03;;
19869;SDS011;10097;50.862;4.696;2024-02-21T08:46:18;13.63;;;4.97;;
19869;SDS011;10097;50.862;4.696;2024-02-21T08:48:45;17.77;;;5.23;;
19869;SDS011;10097;50.862;4.696;2024-02-21T08:51:13;12.53;;;5.13;;
19869;SDS011;10097;50.862;4.696;2024-02-21T08:53:38;12.53;;;4.87;;
19869;SDS011;10097;50.862;4.696;2024-02-21T08:56:04;16.73;;;5.17;;
19869;SDS011;10097;50.862;4.696;2024-02-21T08:58:30;12.63;;;4.20;;
19869;SDS011;10097;50.862;4.696;2024-02-21T09:00:56;12.23;;;4.10;;
19869;SDS011;10097;50.862;4.696;2024-02-21T09:03:22;10.27;;;4.03;;
19869;SDS011;10097;50.862;4.696;2024-02-21T09:05:48;13.37;;;4.07;;
19869;SDS011;10097;50.862;4.696;2024-02-21T09:08:13;13.23;;;4.30;;
19869;SDS011;10097;50.862;4.696;2024-02-21T09:10:39;10.13;;;3.60;;
19869;SDS011;10097;50.862;4.696;2024-02-21T09:13:05;12.77;;;3.80;;
19869;SDS011;10097;50.862;4.696;2024-02-21T09:15:33;10.40;;;4.20;;
19869;SDS011;10097;50.862;4.696;2024-02-21T09:17:58;15.77;;;4.47;;
19869;SDS011;10097;50.862;4.696;2024-02-21T09:20:24;11.60;;;3.90;;
19869;SDS011;10097;50.862;4.696;2024-02-21T09:22:50;13.07;;;4.33;;
19869;SDS011;10097;50.862;4.696;2024-02-21T09:25:17;14.70;;;3.90;;
19869;SDS011;10097;50.862;4.696;2024-02-21T09:27:43;12.87;;;4.17;;
19869;SDS011;10097;50.862;4.696;2024-02-21T09:30:10;15.30;;;3.30;;
19869;SDS011;10097;50.862;4.696;2024-02-21T09:32:36;10.53;;;3.73;;
19869;SDS011;10097;50.862;4.696;2024-02-21T09:35:02;12.07;;;4.27;;
19869;SDS011;10097;50.862;4.696;2024-02-21T09:37:28;10.30;;;3.90;;
19869;SDS011;10097;50.862;4.696;2024-02-21T09:39:54;14.03;;;3.73;;
19869;SDS011;10097;50.862;4.696;2024-02-21T09:42:20;10.07;;;3.00;;
19869;SDS011;10097;50.862;4.696;2024-02-21T09:44:49;10.60;;;3.27;;
19869;SDS011;10097;50.862;4.696;2024-02-21T09:49:44;9.47;;;3.37;;
19869;SDS011;10097;50.862;4.696;2024-02-21T09:52:10;8.00;;;3.20;;
19869;SDS011;10097;50.862;4.696;2024-02-21T09:54:39;12.27;;;3.60;;
19869;SDS011;10097;50.862;4.696;2024-02-21T09:57:07;8.97;;;3.23;;
19869;SDS011;10097;50.862;4.696;2024-02-21T09:59:33;9.80;;;3.17;;
19869;SDS011;10097;50.862;4.696;2024-02-21T10:01:59;8.57;;;3.10;;
19869;SDS011;10097;50.862;4.696;2024-02-21T10:04:29;10.23;;;3.03;;
19869;SDS011;10097;50.862;4.696;2024-02-21T10:06:55;15.40;;;3.60;;
19869;SDS011;10097;50.862;4.696;2024-02-21T10:09:27;10.93;;;3.40;;
19869;SDS011;10097;50.862;4.696;2024-02-21T10:11:54;11.50;;;3.50;;
19869;SDS011;10097;50.862;4.696;2024-02-21T10:14:20;11.80;;;3.03;;
19869;SDS011;10097;50.862;4.696;2024-02-21T10:16:56;11.73;;;3.23;;
19869;SDS011;10097;50.862;4.696;2024-02-21T10:19:25;12.17;;;3.33;;
19869;SDS011;10097;50.862;4.696;2024-02-21T10:22:04;10.23;;;3.33;;
19869;SDS011;10097;50.862;4.696;2024-02-21T10:24:31;11.27;;;3.20;;
19869;SDS011;10097;50.862;4.696;2024-02-21T10:27:07;10.97;;;3.00;;
19869;SDS011;10097;50.862;4.696;2024-02-21T10:29:37;16.17;;;3.47;;
19869;SDS011;10097;50.862;4.696;2024-02-21T10:32:06;11.63;;;3.43;;
19869;SDS011;10097;50.862;4.696;2024-02-21T10:34:33;9.63;;;3.30;;
19869;SDS011;10097;50.862;4.696;2024-02-21T10:37:02;9.97;;;2.93;;
19869;SDS011;10097;50.862;4.696;2024-02-21T10:39:32;10.87;;;3.17;;
19869;SDS011;10097;50.862;4.696;2024-02-21T10:42:00;15.43;;;3.07;;
19869;SDS011;10097;50.862;4.696;2024-02-21T10:44:34;14.07;;;3.07;;
19869;SDS011;10097;50.862;4.696;2024-02-21T10:47:07;12.40;;;3.20;;
19869;SDS011;10097;50.862;4.696;2024-02-21T10:49:34;11.40;;;3.23;;
19869;SDS011;10097;50.862;4.696;2024-02-21T10:52:31;12.90;;;3.13;;
19869;SDS011;10097;50.862;4.696;2024-02-21T10:55:09;9.80;;;2.90;;
19869;SDS011;10097;50.862;4.696;2024-02-21T10:57:40;11.53;;;2.73;;
19869;SDS011;10097;50.862;4.696;2024-02-21T11:00:07;12.07;;;3.40;;
19869;SDS011;10097;50.862;4.696;2024-02-21T11:02:37;11.63;;;3.27;;
19869;SDS011;10097;50.862;4.696;2024-02-21T11:05:04;10.83;;;2.80;;
19869;SDS011;10097;50.862;4.696;2024-02-21T11:07:31;11.90;;;3.67;;
19869;SDS011;10097;50.862;4.696;2024-02-21T11:10:00;9.73;;;3.03;;
19869;SDS011;10097;50.862;4.696;2024-02-21T11:12:26;13.97;;;3.27;;
19869;SDS011;10097;50.862;4.696;2024-02-21T11:14:52;9.83;;;2.80;;
19869;SDS011;10097;50.862;4.696;2024-02-21T11:17:29;12.37;;;3.00;;
19869;SDS011;10097;50.862;4.696;2024-02-21T11:19:55;8.13;;;2.63;;
19869;SDS011;10097;50.862;4.696;2024-02-21T11:22:20;12.37;;;3.63;;
19869;SDS011;10097;50.862;4.696;2024-02-21T11:24:49;9.73;;;2.77;;
19869;SDS011;10097;50.862;4.696;2024-02-21T11:27:15;10.73;;;2.73;;
19869;SDS011;10097;50.862;4.696;2024-02-21T11:29:46;10.53;;;2.90;;
19869;SDS011;10097;50.862;4.696;2024-02-21T11:32:14;10.70;;;2.93;;
19869;SDS011;10097;50.862;4.696;2024-02-21T11:34:41;11.47;;;2.83;;
19869;SDS011;10097;50.862;4.696;2024-02-21T11:37:17;8.20;;;2.43;;
19869;SDS011;10097;50.862;4.696;2024-02-21T11:39:43;9.93;;;2.70;;
19869;SDS011;10097;50.862;4.696;2024-02-21T11:42:09;13.33;;;2.70;;
19869;SDS011;10097;50.862;4.696;2024-02-21T11:44:37;11.50;;;2.87;;
19869;SDS011;10097;50.862;4.696;2024-02-21T11:47:04;14.50;;;2.93;;
19869;SDS011;10097;50.862;4.696;2024-02-21T11:49:30;11.70;;;2.83;;
19869;SDS011;10097;50.862;4.696;2024-02-21T11:51:59;8.87;;;2.13;;
19869;SDS011;10097;50.862;4.696;2024-02-21T11:54:27;10.87;;;2.40;;
19869;SDS011;10097;50.862;4.696;2024-02-21T11:56:53;13.27;;;2.23;;
19869;SDS011;10097;50.862;4.696;2024-02-21T11:59:19;11.63;;;2.57;;
19869;SDS011;10097;50.862;4.696;2024-02-21T12:01:44;10.87;;;2.53;;
19869;SDS011;10097;50.862;4.696;2024-02-21T12:04:10;9.83;;;2.60;;
19869;SDS011;10097;50.862;4.696;2024-02-21T12:06:36;9.33;;;2.30;;
19869;SDS011;10097;50.862;4.696;2024-02-21T12:09:01;14.07;;;3.10;;
19869;SDS011;10097;50.862;4.696;2024-02-21T12:11:27;10.47;;;2.77;;
19869;SDS011;10097;50.862;4.696;2024-02-21T12:14:02;6.43;;;2.20;;
19869;SDS011;10097;50.862;4.696;2024-02-21T12:16:30;7.60;;;2.40;;
19869;SDS011;10097;50.862;4.696;2024-02-21T12:18:57;9.63;;;2.63;;
19869;SDS011;10097;50.862;4.696;2024-02-21T12:21:29;8.50;;;2.20;;
19869;SDS011;10097;50.862;4.696;2024-02-21T12:23:57;10.20;;;2.77;;
19869;SDS011;10097;50.862;4.696;2024-02-21T12:26:23;10.67;;;2.47;;
19869;SDS011;10097;50.862;4.696;2024-02-21T12:28:49;7.53;;;2.30;;
19869;SDS011;10097;50.862;4.696;2024-02-21T12:31:15;6.43;;;2.00;;
19869;SDS011;10097;50.862;4.696;2024-02-21T12:33:41;12.60;;;2.67;;
19869;SDS011;10097;50.862;4.696;2024-02-21T12:36:08;8.07;;;2.60;;
19869;SDS011;10097;50.862;4.696;2024-02-21T12:38:34;10.17;;;2.40;;
19869;SDS011;10097;50.862;4.696;2024-02-21T12:41:00;9.43;;;2.80;;
19869;SDS011;10097;50.862;4.696;2024-02-21T12:43:26;11.87;;;2.67;;
19869;SDS011;10097;50.862;4.696;2024-02-21T12:45:52;12.53;;;3.63;;
19869;SDS011;10097;50.862;4.696;2024-02-21T12:48:18;11.00;;;2.37;;
19869;SDS011;10097;50.862;4.696;2024-02-21T12:50:47;10.93;;;2.60;;
19869;SDS011;10097;50.862;4.696;2024-02-21T12:53:17;7.73;;;2.47;;
19869;SDS011;10097;50.862;4.696;2024-02-21T12:55:46;11.03;;;2.60;;
19869;SDS011;10097;50.862;4.696;2024-02-21T12:58:13;8.97;;;2.63;;
19869;SDS011;10097;50.862;4.696;2024-02-21T13:00:39;9.00;;;2.80;;
19869;SDS011;10097;50.862;4.696;2024-02-21T13:03:05;13.40;;;3.00;;
19869;SDS011;10097;50.862;4.696;2024-02-21T13:05:31;7.77;;;2.40;;
19869;SDS011;10097;50.862;4.696;2024-02-21T13:08:00;12.33;;;2.53;;
19869;SDS011;10097;50.862;4.696;2024-02-21T13:10:25;10.47;;;2.90;;
19869;SDS011;10097;50.862;4.696;2024-02-21T13:12:51;9.70;;;2.80;;
19869;SDS011;10097;50.862;4.696;2024-02-21T13:15:17;11.90;;;2.83;;
19869;SDS011;10097;50.862;4.696;2024-02-21T13:17:43;12.43;;;2.87;;
19869;SDS011;10097;50.862;4.696;2024-02-21T13:20:10;9.27;;;2.53;;
19869;SDS011;10097;50.862;4.696;2024-02-21T13:22:36;13.40;;;3.00;;
19869;SDS011;10097;50.862;4.696;2024-02-21T13:25:03;10.37;;;2.60;;
19869;SDS011;10097;50.862;4.696;2024-02-21T13:27:29;8.67;;;2.57;;
19869;SDS011;10097;50.862;4.696;2024-02-21T13:29:55;13.33;;;2.73;;
19869;SDS011;10097;50.862;4.696;2024-02-21T13:32:21;11.83;;;2.43;;
19869;SDS011;10097;50.862;4.696;2024-02-21T13:34:46;9.47;;;2.70;;
19869;SDS011;10097;50.862;4.696;2024-02-21T13:37:13;9.97;;;2.97;;
19869;SDS011;10097;50.862;4.696;2024-02-21T13:39:39;11.30;;;2.90;;
19869;SDS011;10097;50.862;4.696;2024-02-21T13:42:05;9.67;;;2.90;;
19869;SDS011;10097;50.862;4.696;2024-02-21T13:44:34;8.57;;;2.67;;
19869;SDS011;10097;50.862;4.696;2024-02-21T13:47:00;15.33;;;3.40;;
19869;SDS011;10097;50.862;4.696;2024-02-21T13:49:25;11.03;;;3.33;;
19869;SDS011;10097;50.862;4.696;2024-02-21T13:51:51;10.90;;;3.03;;
19869;SDS011;10097;50.862;4.696;2024-02-21T13:54:17;9.00;;;3.03;;
19869;SDS011;10097;50.862;4.696;2024-02-21T13:56:44;9.37;;;3.13;;
19869;SDS011;10097;50.862;4.696;2024-02-21T13:59:11;10.63;;;3.07;;
19869;SDS011;10097;50.862;4.696;2024-02-21T14:01:38;10.40;;;3.07;;
19869;SDS011;10097;50.862;4.696;2024-02-21T14:04:04;10.47;;;3.53;;
19869;SDS011;10097;50.862;4.696;2024-02-21T14:06:30;13.43;;;3.90;;
19869;SDS011;10097;50.862;4.696;2024-02-21T14:08:58;10.43;;;3.10;;
19869;SDS011;10097;50.862;4.696;2024-02-21T14:11:23;13.57;;;3.97;;
19869;SDS011;10097;50.862;4.696;2024-02-21T14:13:49;13.20;;;3.27;;
19869;SDS011;10097;50.862;4.696;2024-02-21T14:16:15;10.73;;;3.40;;
19869;SDS011;10097;50.862;4.696;2024-02-21T14:18:41;10.00;;;3.27;;
19869;SDS011;10097;50.862;4.696;2024-02-21T14:21:10;15.07;;;4.00;;
19869;SDS011;10097;50.862;4.696;2024-02-21T14:23:36;12.20;;;3.20;;
19869;SDS011;10097;50.862;4.696;2024-02-21T14:26:03;9.40;;;2.83;;
19869;SDS011;10097;50.862;4.696;2024-02-21T14:28:29;15.23;;;3.47;;
19869;SDS011;10097;50.862;4.696;2024-02-21T14:30:55;13.17;;;3.60;;
19869;SDS011;10097;50.862;4.696;2024-02-21T14:33:23;7.93;;;3.10;;
19869;SDS011;10097;50.862;4.696;2024-02-21T14:35:50;10.50;;;3.37;;